Aérodrome :
LOGIN :

S'inscrire | Disclaimer

   EN    FR    IT 

 










Légende :    VFR   VFR Marginal   IFR   IFR Intensif   IFR Très Intensif
Visi : 
Plafond : 
>= 8 km
>= 3000ft
5 à 8 km
1000 à 3000 ft
1500m à 5 km
500 à 1000 ft
800 à 1500m
200 à 500 ft
< 800m
< 200 ft
Symboles :   Orages  Brouillard  Fortes neiges  Fortes précipitations  Vent > 20 kt
SIGMETs :   Divers  Orages  Givrage  Turbulence  Onde Orograph.  Cendres Volcan.







- Altitude de l'aérodrome : 160 ft
- Code IATA : FMO


EDDG - Münster Osnabrück Int.

DERNIER METAR :
  • 211350Z 25013KT 9999 FEW025 BKN045 12/06 Q1025 NOSIG

METARs EXPIRÉS :
  • 211320Z 23006KT 9999 FEW028 BKN045 11/07 Q1025 NOSIG
  • 211250Z 25010KT 9999 -RA FEW030 BKN036 10/07 Q1025 NOSIG
  • 211220Z 24009KT 9999 BKN036 11/06 Q1025 NOSIG
  • 211150Z 25012KT 9999 -RA BKN036 10/06 Q1025 NOSIG
  • 211120Z 23008KT 200V260 9999 BKN037 10/06 Q1026 NOSIG

TAF TAF EDDG
Valide du 21 à 12h jusqu'au 22 à 12h UTC


211100Z 2112/2212 24011KT 9999 BKN030
BECMG 2116/2120 26006KT 4000 BR BKN008
TEMPO 2120/2209 2500 -DZRA OVC004
BECMG 2203/2206 32004KT
BECMG 2207/2210 04006KT BKN012
TEMPO 2210/2212 6000 BKN015
Pas de NOTAMs connus pour ce terrain.



MET'MAP, la Météo Aéronautique d'un coup d'oeil ! - Copyright ORBIFLY Décembre 2007 - Disclaimer

ORBIFLY MET'MAP TEAM :

Programmation & Développement : Alexandra Zaïnal
Conception & Développement : Baudouin d'Aumeries
Co-Programmation & Développement : Marc-Olivier Méhu
Soutien technique & logistique : Manuel Goepfert

Contact : metmap@orbifly.com




SOURCES & CREDITS :

   NOAA